Time;durP1;ratioP1;P1;durP2;ratioP2;P2;SDS_P1;SDS_P2;PMS_P1;PMS_P2;Temp;Humidity;BMP_temperature;BMP_pressure;BME280_temperature;BME280_humidity;BME280_pressure;Samples;Min_cycle;Max_cycle;Signal;HPM_P1;HPM_P2
2021/09/15 00:00:30;;;;;;;8.38;6.93;;;;;;;21.71;68.34;99881.59;5103650;28;20052;-82
2021/09/15 00:02:57;;;;;;;8.48;6.55;;;;;;;21.64;68.38;99871.06;5101723;28;20067;-82
2021/09/15 00:05:25;;;;;;;8.25;6.88;;;;;;;21.62;68.68;99875.53;5081179;28;20445;-82
2021/09/15 00:07:53;;;;;;;9.57;7.47;;;;;;;21.60;68.61;99884.41;5086293;28;20048;-82
2021/09/15 00:10:21;;;;;;;7.82;7.03;;;;;;;21.60;68.76;99883.63;5102879;28;20063;-82
2021/09/15 00:12:48;;;;;;;9.63;6.53;;;;;;;21.59;68.69;99876.34;5103298;28;20048;-83
2021/09/15 00:15:16;;;;;;;7.53;6.72;;;;;;;21.62;68.64;99875.53;5103467;28;20075;-83
2021/09/15 00:17:43;;;;;;;9.13;7.10;;;;;;;21.49;69.33;99867.41;5103109;28;20059;-82
2021/09/15 00:20:12;;;;;;;7.72;7.00;;;;;;;21.49;69.21;99863.78;5101593;28;20052;-82
2021/09/15 00:22:39;;;;;;;7.80;7.03;;;;;;;21.50;69.32;99865.38;5100765;28;20483;-82
2021/09/15 00:25:08;;;;;;;7.72;6.95;;;;;;;21.48;69.51;99865.81;5100008;28;20048;-83
2021/09/15 00:27:36;;;;;;;8.38;7.38;;;;;;;21.37;69.99;99859.28;5100260;28;20066;-82
2021/09/15 00:30:03;;;;;;;7.03;6.32;;;;;;;21.38;69.84;99860.91;5100086;28;20067;-82
2021/09/15 00:32:31;;;;;;;7.40;6.70;;;;;;;21.36;69.83;99856.88;5100014;28;20060;-82
2021/09/15 00:34:59;;;;;;;9.55;7.75;;;;;;;21.35;70.09;99856.03;5100729;28;20060;-82
2021/09/15 00:37:28;;;;;;;7.53;6.82;;;;;;;21.34;69.87;99857.25;5100036;28;20087;-82
2021/09/15 00:39:56;;;;;;;7.57;6.88;;;;;;;21.31;70.17;99852.38;5100520;28;20056;-82
2021/09/15 00:42:25;;;;;;;10.30;7.25;;;;;;;21.28;70.27;99845.50;5100858;28;20052;-82
2021/09/15 00:44:55;;;;;;;10.23;7.65;;;;;;;21.25;70.54;99851.16;5092693;28;20067;-82
2021/09/15 00:47:22;;;;;;;7.70;7.00;;;;;;;21.24;70.48;99846.72;5081403;28;20056;-82
2021/09/15 00:49:49;;;;;;;7.68;6.88;;;;;;;21.26;70.36;99841.47;5081619;28;20059;-82
2021/09/15 00:52:18;;;;;;;8.18;7.47;;;;;;;21.22;70.40;99849.16;5079543;28;20057;-83
2021/09/15 00:54:45;;;;;;;7.93;7.22;;;;;;;21.26;70.13;99841.47;5080058;28;20151;-83
2021/09/15 00:57:13;;;;;;;9.40;7.75;;;;;;;21.25;70.11;99840.66;5078550;28;20059;-83
2021/09/15 00:59:42;;;;;;;8.00;7.30;;;;;;;21.24;70.32;99832.56;5079876;28;20052;-82
2021/09/15 01:02:09;;;;;;;8.57;7.65;;;;;;;21.20;70.28;99831.75;5083328;28;20063;-83
2021/09/15 01:04:39;;;;;;;8.13;7.40;;;;;;;21.17;70.73;99838.22;5081167;28;20056;-82
2021/09/15 01:07:07;;;;;;;8.48;7.30;;;;;;;21.15;70.45;99835.00;5082067;28;20060;-83
2021/09/15 01:09:36;;;;;;;11.43;7.90;;;;;;;21.13;70.74;99832.56;5079935;28;20405;-83
2021/09/15 01:12:05;;;;;;;8.60;7.60;;;;;;;21.11;70.92;99828.50;5081567;28;20053;-83
2021/09/15 01:14:32;;;;;;;8.00;7.20;;;;;;;21.11;70.64;99822.84;5082279;28;20061;-83
2021/09/15 01:17:02;;;;;;;8.10;7.30;;;;;;;21.10;70.75;99833.34;5081311;28;20065;-83
2021/09/15 01:19:29;;;;;;;;;;;;;;;21.02;70.90;99831.72;5082233;28;20048;-83
2021/09/15 01:21:58;;;;;;;8.60;7.80;;;;;;;21.01;70.93;99821.59;5080182;28;19920;-83
2021/09/15 01:24:26;;;;;;;;;;;;;;;20.94;71.15;99818.78;5080114;28;20052;-83
2021/09/15 01:26:54;;;;;;;8.75;7.70;;;;;;;20.94;71.38;99825.25;5080167;28;19920;-82
2021/09/15 01:29:24;;;;;;;9.05;8.10;;;;;;;20.91;71.26;99823.19;5079709;28;20063;-83
2021/09/15 01:31:54;;;;;;;;;;;;;;;20.87;71.48;99825.19;5083902;28;20500;-83
2021/09/15 01:34:22;;;;;;;9.10;8.20;;;;;;;20.85;71.67;99817.13;5081577;28;19928;-83
2021/09/15 01:36:50;;;;;;;10.65;8.27;;;;;;;20.89;71.57;99822.78;5082174;28;20056;-83
2021/09/15 01:39:19;;;;;;;8.82;7.93;;;;;;;20.88;71.53;99815.50;5085463;28;20509;-83
2021/09/15 01:41:46;;;;;;;9.20;8.20;;;;;;;20.88;71.49;99818.34;5084982;28;20062;-83
2021/09/15 01:44:13;;;;;;;8.73;7.93;;;;;;;20.83;71.91;99813.06;5085943;28;20067;-83
2021/09/15 01:46:41;;;;;;;9.82;8.00;;;;;;;20.83;71.78;99818.72;5091005;28;20056;-82
2021/09/15 01:49:08;;;;;;;9.52;8.45;;;;;;;20.80;71.96;99822.38;5085645;28;20072;-83
2021/09/15 01:51:40;;;;;;;8.98;8.07;;;;;;;20.79;72.08;99820.72;5084543;28;20060;-83
2021/09/15 01:54:08;;;;;;;9.55;8.55;;;;;;;20.77;72.14;99820.34;5084583;28;20056;-83
2021/09/15 01:56:37;;;;;;;10.00;8.55;;;;;;;20.79;72.05;99817.91;5084218;28;20060;-82
2021/09/15 01:59:04;;;;;;;9.52;8.52;;;;;;;20.79;72.13;99812.25;5084761;28;20060;-82
2021/09/15 02:01:32;;;;;;;9.07;8.18;;;;;;;20.78;72.09;99816.28;5082418;28;20071;-82
2021/09/15 02:03:59;;;;;;;9.95;8.50;;;;;;;20.78;72.28;99810.63;5085056;28;20414;-82
2021/09/15 02:06:26;;;;;;;10.27;9.18;;;;;;;20.78;72.26;99807.81;5084351;28;20060;-83
2021/09/15 02:08:54;;;;;;;8.75;7.80;;;;;;;20.80;72.04;99799.72;5085959;28;20067;-82
2021/09/15 02:11:21;;;;;;;9.25;8.35;;;;;;;20.85;72.01;99790.81;5085408;28;20062;-83
2021/09/15 02:13:50;;;;;;;9.43;8.38;;;;;;;20.87;71.95;99791.22;5084625;28;20057;-83
2021/09/15 02:16:17;;;;;;;9.02;8.23;;;;;;;20.84;71.95;99794.88;5084879;28;20057;-82
2021/09/15 02:18:45;;;;;;;12.88;9.20;;;;;;;20.84;72.30;99792.06;5085257;28;20053;-83
2021/09/15 02:21:12;;;;;;;9.30;8.13;;;;;;;20.83;72.11;99784.75;5085413;28;20437;-83
2021/09/15 02:23:40;;;;;;;9.77;7.70;;;;;;;20.83;72.27;99777.09;5086165;28;20057;-82
2021/09/15 02:26:08;;;;;;;8.82;7.88;;;;;;;20.83;72.49;99779.94;5086290;28;20068;-83
2021/09/15 02:28:35;;;;;;;8.15;7.35;;;;;;;20.87;72.27;99779.91;5086002;28;20061;-83
2021/09/15 02:31:04;;;;;;;10.55;7.38;;;;;;;20.85;71.93;99771.84;5084827;28;20048;-83
2021/09/15 02:33:31;;;;;;;8.93;7.68;;;;;;;20.86;72.10;99769.81;5086076;28;20060;-83
2021/09/15 02:35:59;;;;;;;9.13;7.95;;;;;;;20.87;72.18;99768.59;5085123;28;20311;-83
2021/09/15 02:38:27;;;;;;;10.02;8.25;;;;;;;20.81;72.42;99764.53;5081136;28;20061;-83
2021/09/15 02:40:54;;;;;;;8.95;8.05;;;;;;;20.81;72.36;99767.34;5080913;28;20053;-83
2021/09/15 02:43:21;;;;;;;8.93;8.02;;;;;;;20.83;72.20;99764.94;5066516;28;20064;-83
2021/09/15 02:45:49;;;;;;;8.48;7.03;;;;;;;20.84;72.30;99764.53;5066731;28;20057;-83
2021/09/15 02:48:18;;;;;;;7.85;7.00;;;;;;;20.83;72.36;99767.78;5081002;28;20055;-83
2021/09/15 02:50:45;;;;;;;7.78;7.07;;;;;;;20.85;72.29;99769.00;5106054;28;20571;-83
2021/09/15 02:53:12;;;;;;;8.23;7.43;;;;;;;20.87;72.19;99760.09;5105436;28;20058;-83
2021/09/15 02:55:40;;;;;;;8.00;7.20;;;;;;;20.89;72.36;99766.16;5105040;28;20052;-83
2021/09/15 02:58:07;;;;;;;13.13;8.98;;;;;;;20.87;72.59;99765.75;5105955;28;20067;-83
2021/09/15 03:00:34;;;;;;;9.38;8.00;;;;;;;20.88;73.08;99764.56;5104622;28;20063;-82
2021/09/15 03:03:02;;;;;;;9.45;8.48;;;;;;;20.85;73.09;99760.53;5104827;28;20060;-83
2021/09/15 03:05:32;;;;;;;9.52;8.35;;;;;;;20.86;73.34;99764.16;5104164;28;20063;-82
2021/09/15 03:07:59;;;;;;;;;;;;;;;20.82;73.29;99766.16;5104694;28;20067;-83
2021/09/15 03:10:26;;;;;;;8.68;7.88;;;;;;;20.82;72.82;99772.63;5103905;28;19920;-83
2021/09/15 03:12:54;;;;;;;11.15;8.38;;;;;;;20.82;72.75;99766.16;5103456;28;20400;-83
2021/09/15 03:15:22;;;;;;;8.35;7.50;;;;;;;20.81;73.06;99770.19;5103961;28;20056;-83
2021/09/15 03:17:49;;;;;;;8.40;7.65;;;;;;;20.79;73.01;99766.94;5103123;28;20048;-83
2021/09/15 03:20:17;;;;;;;9.45;8.32;;;;;;;20.75;72.99;99757.69;5104278;28;20063;-83
2021/09/15 03:22:46;;;;;;;8.25;7.45;;;;;;;20.79;72.89;99755.63;5103392;28;20048;-83
2021/09/15 03:25:13;;;;;;;8.80;7.90;;;;;;;20.78;73.10;99754.03;5103146;28;20060;-83
2021/09/15 03:27:41;;;;;;;10.48;7.97;;;;;;;20.77;73.13;99753.22;5103140;28;20060;-83
2021/09/15 03:30:10;;;;;;;9.43;8.45;;;;;;;20.76;73.23;99745.13;5103607;28;20504;-83
2021/09/15 03:32:37;;;;;;;9.65;7.95;;;;;;;20.79;73.33;99749.97;5104064;28;20059;-83
2021/09/15 03:35:06;;;;;;;9.85;8.07;;;;;;;20.79;73.49;99750.81;5104229;28;20432;-83
2021/09/15 03:37:33;;;;;;;10.00;9.00;;;;;;;20.79;73.35;99749.97;5103670;28;20067;-83
2021/09/15 03:40:02;;;;;;;9.68;8.30;;;;;;;20.79;73.32;99747.97;5103519;28;20056;-83
2021/09/15 03:42:29;;;;;;;8.95;8.05;;;;;;;20.74;73.73;99756.03;5105317;28;20052;-83
2021/09/15 03:44:57;;;;;;;9.27;8.35;;;;;;;20.77;73.32;99752.41;5104468;28;20508;-83
2021/09/15 03:47:24;;;;;;;11.48;8.55;;;;;;;20.76;73.21;99753.63;5104375;28;20067;-83
2021/09/15 03:49:51;;;;;;;8.88;7.97;;;;;;;20.77;73.22;99758.88;5105032;28;20055;-83
2021/09/15 03:52:19;;;;;;;9.32;8.25;;;;;;;20.78;73.56;99757.66;5102392;28;20060;-83
2021/09/15 03:54:46;;;;;;;11.85;8.57;;;;;;;20.78;73.90;99759.69;5102897;28;20059;-83
2021/09/15 03:57:15;;;;;;;10.82;9.25;;;;;;;20.76;73.94;99753.63;5101377;28;20056;-83
2021/09/15 03:59:43;;;;;;;9.38;8.23;;;;;;;20.79;74.05;99752.81;5102500;28;20055;-83
2021/09/15 04:02:10;;;;;;;8.65;7.85;;;;;;;20.81;74.27;99753.22;5100497;28;20051;-83
2021/09/15 04:04:38;;;;;;;10.40;7.97;;;;;;;20.78;73.90;99746.34;5102104;28;20059;-83
2021/09/15 04:07:05;;;;;;;9.90;8.57;;;;;;;20.81;73.53;99742.72;5099717;28;20504;-83
2021/09/15 04:09:32;;;;;;;9.70;8.43;;;;;;;20.81;73.85;99741.88;5099966;28;20056;-83
2021/09/15 04:12:03;;;;;;;9.38;8.57;;;;;;;20.80;74.07;99737.44;5101892;28;20052;-83
2021/09/15 04:14:32;;;;;;;9.82;8.75;;;;;;;20.77;74.22;99741.09;5101835;28;20052;-83
2021/09/15 04:17:00;;;;;;;9.43;8.48;;;;;;;20.76;74.07;99734.59;5099867;28;20500;-83
2021/09/15 04:19:27;;;;;;;9.98;8.98;;;;;;;20.76;74.24;99745.13;5100765;28;20063;-83
2021/09/15 04:21:55;;;;;;;9.55;8.60;;;;;;;20.67;74.59;99743.50;5098536;28;20500;-83
2021/09/15 04:24:43;;;;;;;10.05;9.05;;;;;;;20.62;74.88;99728.91;5100108;28;20048;-83
2021/09/15 04:32:42;;;;;;;10.30;9.30;;;;;;;20.60;75.53;99732.16;5101030;28;20059;-83
2021/09/15 04:35:10;;;;;;;11.02;9.52;;;;;;;20.61;75.61;99736.59;5102413;28;20056;-83
2021/09/15 04:37:37;;;;;;;12.80;10.68;;;;;;;20.59;75.69;99735.38;5095818;28;20520;-83
2021/09/15 04:40:06;;;;;;;11.38;10.27;;;;;;;20.63;75.89;99737.00;5097470;28;20062;-80
2021/09/15 04:42:34;;;;;;;11.63;10.60;;;;;;;20.66;75.80;99730.56;5097985;28;20053;-80
2021/09/15 04:45:02;;;;;;;12.10;10.82;;;;;;;20.70;76.18;99732.56;5099026;28;20408;-80
2021/09/15 04:47:30;;;;;;;11.57;10.48;;;;;;;20.70;75.94;99724.88;5099300;28;20063;-79
2021/09/15 04:49:58;;;;;;;11.75;10.52;;;;;;;20.72;76.10;99728.13;5101165;28;20048;-81
2021/09/15 04:52:25;;;;;;;11.98;10.85;;;;;;;20.73;76.14;99723.31;5102614;28;20059;-81
2021/09/15 04:54:53;;;;;;;11.52;10.43;;;;;;;20.75;76.35;99720.88;5102525;28;20056;-81
2021/09/15 04:57:21;;;;;;;11.45;10.30;;;;;;;20.76;76.10;99723.28;5097901;28;20055;-86
2021/09/15 04:59:48;;;;;;;12.13;10.93;;;;;;;20.78;76.50;99718.03;5095169;28;20060;-85
2021/09/15 05:02:17;;;;;;;10.98;9.88;;;;;;;20.79;76.46;99722.50;5085132;28;20060;-85
2021/09/15 05:04:44;;;;;;;12.73;10.02;;;;;;;20.82;75.79;99732.19;5094190;28;20482;-85
2021/09/15 05:07:13;;;;;;;11.35;10.15;;;;;;;20.83;75.79;99730.97;5097779;28;20056;-85
2021/09/15 05:09:40;;;;;;;11.40;10.30;;;;;;;20.83;75.83;99730.97;5105625;28;20063;-85
2021/09/15 05:12:08;;;;;;;11.25;10.15;;;;;;;20.84;75.75;99726.94;5104189;28;20051;-86
2021/09/15 05:14:35;;;;;;;11.18;9.88;;;;;;;20.88;75.55;99724.94;5104644;28;20110;-84
2021/09/15 05:17:03;;;;;;;11.00;9.90;;;;;;;20.86;75.43;99730.97;5102156;28;20060;-86
2021/09/15 05:19:32;;;;;;;10.05;9.05;;;;;;;20.83;75.39;99731.81;5089224;28;20481;-86
2021/09/15 05:21:59;;;;;;;9.50;8.57;;;;;;;20.83;74.73;99728.97;5082449;28;20428;-86
2021/09/15 05:24:27;;;;;;;9.38;8.48;;;;;;;20.82;74.66;99721.69;5083327;28;20059;-86
2021/09/15 05:26:54;;;;;;;10.52;9.30;;;;;;;20.84;74.57;99719.25;5083968;28;20049;-86
2021/09/15 05:29:22;;;;;;;10.60;9.00;;;;;;;20.87;74.65;99717.63;5084886;28;20053;-86
2021/09/15 05:31:49;;;;;;;10.00;9.00;;;;;;;20.86;74.48;99711.16;5081194;28;20482;-85
2021/09/15 05:34:17;;;;;;;10.48;9.48;;;;;;;20.82;74.84;99712.38;5081107;28;20051;-85
2021/09/15 05:36:45;;;;;;;10.02;9.07;;;;;;;20.82;75.04;99720.88;5080420;28;20053;-86
2021/09/15 05:39:12;;;;;;;9.75;8.75;;;;;;;20.81;74.96;99714.41;5080466;28;20057;-86
2021/09/15 05:41:40;;;;;;;9.60;8.70;;;;;;;20.78;75.52;99712.38;5091657;28;20056;-86
2021/09/15 05:44:07;;;;;;;10.75;9.57;;;;;;;20.83;75.27;99712.00;5100795;28;20071;-86
2021/09/15 05:46:35;;;;;;;9.95;8.82;;;;;;;20.88;75.42;99719.25;5101143;28;20063;-86
2021/09/15 05:49:03;;;;;;;10.43;9.45;;;;;;;20.90;75.66;99711.19;5101331;28;20083;-85
2021/09/15 05:51:31;;;;;;;9.98;8.98;;;;;;;20.94;75.50;99706.34;5103010;28;20059;-86
2021/09/15 05:53:59;;;;;;;10.20;8.88;;;;;;;20.96;75.86;99709.56;5102041;28;20056;-86
2021/09/15 05:56:27;;;;;;;10.45;9.45;;;;;;;20.99;76.23;99707.94;5102459;28;20082;-86
2021/09/15 05:58:54;;;;;;;11.82;10.38;;;;;;;21.02;76.53;99710.78;5102779;28;20067;-86
2021/09/15 06:01:22;;;;;;;11.95;10.68;;;;;;;21.05;76.50;99712.78;5101950;28;20067;-86
2021/09/15 06:03:49;;;;;;;11.73;10.57;;;;;;;21.12;76.32;99705.50;5101419;28;20052;-86
2021/09/15 06:06:17;;;;;;;11.95;10.57;;;;;;;21.17;76.20;99705.91;5102619;28;20052;-86
2021/09/15 06:08:44;;;;;;;13.05;10.93;;;;;;;21.21;76.10;99718.06;5101890;28;20064;-86
2021/09/15 06:11:13;;;;;;;11.80;10.13;;;;;;;21.27;75.86;99710.78;5100534;28;20060;-86
2021/09/15 06:13:41;;;;;;;12.98;9.95;;;;;;;21.26;75.80;99705.50;5102382;28;20067;-86
2021/09/15 06:16:08;;;;;;;12.15;10.95;;;;;;;21.32;76.16;99703.88;5100638;28;20485;-86
2021/09/15 06:18:36;;;;;;;13.55;11.25;;;;;;;21.36;75.82;99715.22;5102310;28;20052;-86
2021/09/15 06:21:07;;;;;;;11.55;10.35;;;;;;;21.35;75.79;99705.09;5084669;28;20055;-86
2021/09/15 06:23:35;;;;;;;11.63;10.45;;;;;;;21.35;75.99;99707.91;5083157;28;20053;-86
2021/09/15 06:26:02;;;;;;;12.75;11.45;;;;;;;21.34;76.31;99704.28;5077927;28;20513;-86
2021/09/15 06:28:31;;;;;;;13.20;11.85;;;;;;;21.38;75.80;99709.97;5081302;28;20048;-86
2021/09/15 06:31:01;;;;;;;13.35;11.18;;;;;;;21.42;74.91;99700.25;5080257;28;20052;-86
2021/09/15 06:33:28;;;;;;;11.15;10.05;;;;;;;21.45;74.80;99688.09;5081672;28;20061;-86
2021/09/15 06:35:56;;;;;;;12.07;10.90;;;;;;;21.44;74.70;99683.66;5081297;28;20059;-86
2021/09/15 06:38:24;;;;;;;13.75;10.02;;;;;;;21.46;74.54;99691.72;5081311;28;20413;-85
2021/09/15 06:40:51;;;;;;;13.45;10.90;;;;;;;21.44;75.29;99683.66;5085960;28;20048;-86
2021/09/15 06:43:18;;;;;;;13.13;10.60;;;;;;;21.42;75.56;99680.44;5102299;28;20055;-86
2021/09/15 06:45:47;;;;;;;12.00;10.18;;;;;;;21.39;75.88;99669.06;5084627;28;20048;-86
2021/09/15 06:48:15;;;;;;;11.38;9.93;;;;;;;21.42;76.07;99668.28;5101420;28;20060;-87
2021/09/15 06:50:43;;;;;;;11.10;9.27;;;;;;;21.56;75.59;99673.09;5101406;28;20056;-87
2021/09/15 06:53:10;;;;;;;9.40;8.48;;;;;;;21.61;75.02;99667.03;5101125;28;20056;-86
2021/09/15 06:55:37;;;;;;;9.93;8.25;;;;;;;21.68;74.31;99670.63;5100749;28;20052;-86
2021/09/15 06:58:05;;;;;;;11.10;9.23;;;;;;;21.77;74.08;99669.38;5100697;28;20311;-86
2021/09/15 07:00:32;;;;;;;11.18;8.27;;;;;;;21.58;74.72;99674.31;5100025;28;20126;-86
2021/09/15 07:03:02;;;;;;;8.50;7.38;;;;;;;21.69;74.09;99671.44;5099298;28;20052;-86
2021/09/15 07:05:30;;;;;;;8.40;7.47;;;;;;;21.64;74.34;99666.19;5100494;28;20060;-86
2021/09/15 07:07:58;;;;;;;10.25;7.82;;;;;;;21.81;73.85;99670.97;5100074;28;20063;-86
2021/09/15 07:10:27;;;;;;;8.52;7.32;;;;;;;21.87;73.29;99668.53;5100421;28;20488;-86
2021/09/15 07:12:54;;;;;;;8.73;7.28;;;;;;;21.97;72.91;99675.41;5101125;28;20056;-86
2021/09/15 07:15:21;;;;;;;9.00;7.65;;;;;;;21.97;73.20;99675.41;5098734;28;20504;-86
2021/09/15 07:17:49;;;;;;;8.95;6.68;;;;;;;22.04;72.58;99679.00;5099254;28;20044;-86
2021/09/15 07:20:18;;;;;;;8.90;6.93;;;;;;;22.08;72.50;99681.81;5088845;28;20056;-86
2021/09/15 07:22:45;;;;;;;9.27;8.18;;;;;;;22.15;72.66;99680.97;5078623;28;20052;-86
2021/09/15 07:25:13;;;;;;;9.70;7.00;;;;;;;22.26;71.84;99681.78;5078648;28;20055;-86
2021/09/15 07:27:42;;;;;;;8.48;7.07;;;;;;;22.34;71.67;99683.31;5077960;28;20057;-86
2021/09/15 07:30:11;;;;;;;8.07;7.20;;;;;;;22.40;71.32;99684.50;5080428;28;20052;-86
2021/09/15 07:32:39;;;;;;;7.75;6.97;;;;;;;22.42;71.50;99678.41;5080246;28;20064;-86
2021/09/15 07:35:09;;;;;;;8.88;6.70;;;;;;;22.38;71.23;99686.16;5080555;28;20071;-86
2021/09/15 07:37:38;;;;;;;9.13;6.85;;;;;;;22.45;70.87;99691.78;5081253;28;20052;-86
2021/09/15 07:40:07;;;;;;;8.77;7.70;;;;;;;22.48;70.96;99680.41;5079721;28;20060;-86
2021/09/15 07:42:35;;;;;;;8.32;7.30;;;;;;;22.59;70.80;99682.38;5080204;28;20413;-85
2021/09/15 07:45:03;;;;;;;7.43;6.43;;;;;;;22.75;69.96;99687.53;5080823;28;20057;-85
2021/09/15 07:47:30;;;;;;;9.50;6.97;;;;;;;22.79;69.87;99691.16;5089286;28;20539;-85
2021/09/15 07:49:58;;;;;;;8.90;7.65;;;;;;;23.00;69.42;99705.19;5101170;28;20059;-86
2021/09/15 07:52:25;;;;;;;9.00;6.68;;;;;;;23.03;69.47;99707.19;5102155;28;20063;-86
2021/09/15 07:54:54;;;;;;;8.85;6.57;;;;;;;23.05;68.73;99710.44;5099941;28;20056;-86
2021/09/15 07:57:21;;;;;;;7.30;6.55;;;;;;;23.29;68.25;99710.66;5100940;28;20071;-86
2021/09/15 07:59:48;;;;;;;8.98;7.65;;;;;;;23.38;68.31;99716.66;5101173;28;20058;-86
2021/09/15 08:02:16;;;;;;;6.78;5.97;;;;;;;23.32;66.96;99715.47;5099769;28;20481;-85
2021/09/15 08:04:43;;;;;;;7.55;6.50;;;;;;;23.48;66.32;99720.63;5100589;28;20056;-86
2021/09/15 08:07:11;;;;;;;7.30;5.65;;;;;;;23.64;66.18;99706.63;5102541;28;20055;-85
2021/09/15 08:09:38;;;;;;;6.65;5.93;;;;;;;23.77;64.95;99721.16;5100563;28;20055;-86
2021/09/15 08:12:07;;;;;;;10.35;6.65;;;;;;;23.30;66.44;99715.91;5100582;28;20052;-86
2021/09/15 08:14:37;;;;;;;6.18;5.28;;;;;;;23.36;66.60;99710.56;5102675;28;20063;-86
2021/09/15 08:17:04;;;;;;;6.07;4.85;;;;;;;23.35;65.85;99720.34;5100621;28;20421;-87
2021/09/15 08:19:32;;;;;;;6.30;4.85;;;;;;;23.19;67.14;99720.09;5101226;28;20063;-86
2021/09/15 08:21:59;;;;;;;6.57;5.38;;;;;;;23.31;66.23;99711.03;5101424;28;20062;-86
2021/09/15 08:24:27;;;;;;;7.05;5.38;;;;;;;23.49;65.60;99716.53;5100976;28;20052;-86
2021/09/15 08:26:54;;;;;;;5.90;5.28;;;;;;;23.28;66.34;99720.38;5101950;28;20060;-86
2021/09/15 08:29:23;;;;;;;6.75;4.90;;;;;;;23.35;65.41;99711.00;5101347;28;20063;-86
2021/09/15 08:31:50;;;;;;;5.82;4.97;;;;;;;23.58;65.21;99705.50;5100688;28;20056;-86
2021/09/15 08:34:17;;;;;;;7.95;5.18;;;;;;;23.54;64.72;99718.94;5100598;28;20060;-86
2021/09/15 08:36:45;;;;;;;5.43;4.85;;;;;;;23.51;65.29;99714.09;5101391;28;20056;-85
2021/09/15 08:39:12;;;;;;;6.03;5.43;;;;;;;23.54;65.05;99715.25;5103566;28;20070;-86
2021/09/15 08:41:40;;;;;;;7.22;5.13;;;;;;;23.47;65.30;99714.09;5104850;28;20055;-86
2021/09/15 08:44:08;;;;;;;6.82;5.25;;;;;;;23.51;64.99;99717.72;5105110;28;20056;-86
2021/09/15 08:46:37;;;;;;;7.22;5.10;;;;;;;23.51;65.12;99709.19;5105010;28;20079;-85
2021/09/15 08:49:05;;;;;;;;;;;;;;;23.49;65.36;99714.50;5104520;28;20052;-85
2021/09/15 08:51:34;;;;;;;6.10;4.57;;;;;;;23.29;65.91;99724.88;5105886;28;19936;-86
2021/09/15 08:54:01;;;;;;;8.27;5.55;;;;;;;23.21;65.84;99707.06;5104743;28;20067;-85
2021/09/15 08:56:28;;;;;;;7.95;4.80;;;;;;;23.04;66.81;99725.88;5106880;28;20060;-85
2021/09/15 08:58:56;;;;;;;5.63;4.82;;;;;;;22.91;67.17;99710.53;5105326;28;20056;-85
2021/09/15 09:01:26;;;;;;;7.15;4.63;;;;;;;22.95;66.91;99713.34;5105020;28;20056;-85
2021/09/15 09:03:56;;;;;;;5.25;4.38;;;;;;;22.95;67.29;99711.31;5105781;28;20056;-86
2021/09/15 09:06:26;;;;;;;5.40;4.43;;;;;;;22.95;67.09;99707.66;5103514;28;20056;-85
2021/09/15 09:08:56;;;;;;;6.22;4.25;;;;;;;23.04;66.19;99719.41;5104161;28;20063;-86
2021/09/15 09:11:26;;;;;;;7.00;4.75;;;;;;;22.87;67.23;99710.56;5103626;28;20056;-86
2021/09/15 09:13:56;;;;;;;6.25;4.82;;;;;;;23.02;66.12;99707.66;5103241;28;20062;-86
2021/09/15 09:16:38;;;;;;;6.32;4.07;;;;;;;23.07;66.57;99707.97;5104451;28;20481;-85
2021/09/15 09:19:08;;;;;;;6.53;4.10;;;;;;;23.07;66.06;99701.50;5104790;28;20052;-86
2021/09/15 09:21:38;;;;;;;6.57;4.70;;;;;;;23.68;64.17;99706.59;5106887;28;20052;-86
2021/09/15 09:24:08;;;;;;;5.45;3.53;;;;;;;24.02;62.90;99700.13;5104790;28;20391;-86
2021/09/15 09:26:51;;;;;;;5.70;3.70;;;;;;;24.35;61.98;99703.38;5102792;28;20052;-86
2021/09/15 09:29:22;;;;;;;6.80;4.25;;;;;;;24.42;61.46;99715.47;5105319;28;20060;-86
2021/09/15 09:32:02;;;;;;;5.78;3.92;;;;;;;24.46;61.14;99699.16;5108172;28;20052;-86
2021/09/15 09:34:32;;;;;;;5.70;3.60;;;;;;;24.46;61.30;99704.03;5106779;28;20055;-86
2021/09/15 09:37:02;;;;;;;5.72;3.70;;;;;;;24.26;61.47;99713.25;5105015;28;20067;-86
2021/09/15 09:39:41;;;;;;;6.63;3.72;;;;;;;24.11;61.91;99720.34;5104623;28;20412;-86
2021/09/15 09:42:32;;;;;;;6.18;3.83;;;;;;;24.03;62.62;99711.09;5106057;28;20130;-86
2021/09/15 09:45:21;;;;;;;5.20;3.83;;;;;;;24.09;62.08;99719.97;5106943;28;20052;-86
2021/09/15 09:47:48;;;;;;;5.00;3.55;;;;;;;23.40;64.39;99708.50;5105859;28;20063;-86
2021/09/15 09:50:19;;;;;;;7.53;4.22;;;;;;;23.93;62.86;99705.53;5104168;28;20052;-85
2021/09/15 09:52:56;;;;;;;6.13;3.60;;;;;;;24.03;62.61;99710.28;5106611;28;20056;-86
2021/09/15 09:55:24;;;;;;;6.60;3.85;;;;;;;24.27;61.75;99703.47;5104120;28;20060;-86
2021/09/15 09:57:52;;;;;;;6.60;3.58;;;;;;;24.06;62.52;99698.06;5104834;28;20056;-86
2021/09/15 10:00:21;;;;;;;5.13;4.30;;;;;;;24.03;63.06;99701.75;5103928;28;20409;-86
2021/09/15 10:02:49;;;;;;;6.53;3.72;;;;;;;24.33;61.14;99703.00;5105639;28;20413;-85
2021/09/15 10:05:20;;;;;;;7.35;3.90;;;;;;;24.19;61.65;99704.81;5104099;28;20056;-86
2021/09/15 10:07:49;;;;;;;4.68;3.45;;;;;;;24.20;62.31;99700.72;5103832;28;20067;-85
2021/09/15 10:10:19;;;;;;;5.95;3.67;;;;;;;24.50;61.03;99699.91;5104869;28;20052;-85
2021/09/15 10:12:49;;;;;;;5.53;3.42;;;;;;;24.16;61.44;99702.00;5103350;28;20052;-85
2021/09/15 10:15:18;;;;;;;7.68;4.10;;;;;;;24.48;60.66;99690.16;5102850;28;20056;-86
2021/09/15 10:17:51;;;;;;;4.95;3.55;;;;;;;24.79;59.94;99693.00;5104226;28;20056;-86
2021/09/15 10:20:23;;;;;;;4.85;3.28;;;;;;;24.59;59.96;99688.00;5103947;28;20056;-86
2021/09/15 10:22:51;;;;;;;4.93;3.20;;;;;;;24.96;59.16;99691.88;5102523;28;20083;-87
2021/09/15 10:25:21;;;;;;;4.20;3.28;;;;;;;25.15;59.44;99692.41;5102690;28;20055;-86
2021/09/15 10:28:00;;;;;;;5.18;3.30;;;;;;;25.14;58.88;99690.81;5103576;28;20059;-87
2021/09/15 10:30:50;;;;;;;5.72;2.90;;;;;;;25.07;58.36;99689.69;5103093;28;20060;-86
2021/09/15 10:33:45;;;;;;;6.15;3.50;;;;;;;24.89;59.69;99683.47;5105020;28;20059;-86
2021/09/15 10:36:37;;;;;;;4.03;3.15;;;;;;;24.61;59.56;99705.47;5101625;28;20060;-86
2021/09/15 10:39:09;;;;;;;3.55;3.03;;;;;;;24.78;59.96;99685.66;5104221;28;20056;-86
2021/09/15 10:41:39;;;;;;;4.60;3.33;;;;;;;24.83;59.38;99674.59;5101801;28;20056;-86
2021/09/15 10:44:08;;;;;;;4.18;3.53;;;;;;;24.90;59.09;99674.50;5102223;28;20052;-86
2021/09/15 10:46:36;;;;;;;5.65;3.22;;;;;;;24.57;60.15;99670.56;5101924;28;20063;-86
2021/09/15 10:49:45;;;;;;;5.43;3.60;;;;;;;24.43;61.25;99667.88;5105098;28;20095;-86
2021/09/15 10:52:27;;;;;;;;;;;;;;;24.57;60.66;99666.88;5104420;28;20079;-86
2021/09/15 10:54:58;;;;;;;5.03;3.40;;;;;;;24.41;61.06;99673.19;5103762;28;19920;-86
2021/09/15 10:57:36;;;;;;;4.30;3.17;;;;;;;24.50;60.17;99679.19;5103063;28;20047;-86
2021/09/15 11:00:10;;;;;;;6.00;3.80;;;;;;;24.32;62.93;99682.28;5103903;28;20067;-86
2021/09/15 11:02:41;;;;;;;4.53;4.00;;;;;;;23.81;67.48;99684.13;5103048;28;20389;-86
2021/09/15 11:05:45;;;;;;;11.13;5.30;;;;;;;22.92;74.15;99689.41;5102339;28;20060;-86
2021/09/15 11:08:34;;;;;;;29.25;8.20;;;;;;;21.34;88.34;99698.63;5106576;28;20063;-84
2021/09/15 11:11:03;;;;;;;41.67;10.75;;;;;;;20.65;95.99;99700.63;5111116;28;20044;-83
2021/09/15 11:13:54;;;;;;;155.70;18.75;;;;;;;20.48;100.00;99696.53;5104464;28;20059;-84
2021/09/15 11:16:34;;;;;;;31.33;16.80;;;;;;;20.53;100.00;99703.81;5105800;28;20060;-85
2021/09/15 11:19:04;;;;;;;18.58;14.55;;;;;;;20.15;100.00;99700.47;5105673;28;20055;-85
2021/09/15 11:21:33;;;;;;;18.85;14.70;;;;;;;19.86;100.00;99703.22;5078665;28;20068;-85
2021/09/15 11:24:10;;;;;;;22.13;14.35;;;;;;;19.87;100.00;99704.81;5080141;28;20072;-85
2021/09/15 11:26:44;;;;;;;17.80;14.02;;;;;;;19.78;100.00;99715.69;5078515;28;20059;-85
2021/09/15 11:29:12;;;;;;;18.00;13.95;;;;;;;19.87;100.00;99715.31;5079119;28;20052;-85
2021/09/15 11:31:41;;;;;;;19.98;16.25;;;;;;;20.03;100.00;99712.97;5077194;28;20060;-85
2021/09/15 11:34:12;;;;;;;;;;;;;;;20.22;100.00;99711.84;5080759;28;20076;-85
2021/09/15 11:36:48;;;;;;;26.17;17.88;;;;;;;20.24;100.00;99726.38;5081097;28;19920;-84
2021/09/15 11:39:18;;;;;;;22.65;17.02;;;;;;;20.19;100.00;99728.78;5086951;28;20053;-84
2021/09/15 11:41:46;;;;;;;24.35;17.60;;;;;;;20.26;100.00;99729.63;5079783;28;20417;-84
2021/09/15 11:44:14;;;;;;;28.77;20.55;;;;;;;20.42;100.00;99732.06;5080698;28;20072;-84
2021/09/15 11:46:42;;;;;;;25.90;18.67;;;;;;;20.57;100.00;99730.09;5081091;28;20053;-84